Time;durP1;ratioP1;P1;durP2;ratioP2;P2;SDS_P1;SDS_P2;PMS_P1;PMS_P2;Temp;Humidity;BMP_temperature;BMP_pressure;BME280_temperature;BME280_humidity;BME280_pressure;Samples;Min_cycle;Max_cycle;Signal;HPM_P1;HPM_P2
2022/08/20 04:02:39;;;;;;;12.93;11.63;;;18.70;99.90;;;;;;4971739;28;20881;-77
2022/08/20 04:05:07;;;;;;;13.43;12.03;;;18.60;99.90;;;;;;4973768;28;20464;-77
2022/08/20 04:07:35;;;;;;;13.53;11.83;;;18.60;99.90;;;;;;4973491;28;20456;-77
2022/08/20 04:10:08;;;;;;;13.60;11.23;;;18.60;99.90;;;;;;4973453;28;20556;-77
2022/08/20 04:12:39;;;;;;;10.90;9.83;;;18.60;99.90;;;;;;4973730;28;20531;-77
2022/08/20 04:15:09;;;;;;;13.30;11.90;;;18.60;99.90;;;;;;4998353;23;20437;-76
2022/08/20 04:17:37;;;;;;;16.20;11.63;;;18.60;99.90;;;;;;4973594;28;20460;-77
2022/08/20 04:20:06;;;;;;;18.17;11.07;;;18.60;99.90;;;;;;4973089;28;20948;-77
2022/08/20 04:22:33;;;;;;;12.10;10.40;;;18.60;99.90;;;;;;4972979;28;20457;-77
2022/08/20 04:25:00;;;;;;;11.63;10.43;;;18.60;99.90;;;;;;4973533;28;20456;-77
2022/08/20 04:27:27;;;;;;;10.93;9.83;;;18.60;99.90;;;;;;4992619;28;20823;-77
2022/08/20 04:29:54;;;;;;;14.47;10.03;;;18.50;99.90;;;;;;4992701;28;20456;-77
2022/08/20 04:32:21;;;;;;;15.43;10.80;;;18.50;99.90;;;;;;4992071;28;20573;-77
2022/08/20 04:34:50;;;;;;;11.43;10.07;;;18.60;99.90;;;;;;4992554;28;20455;-77
2022/08/20 04:37:21;;;;;;;10.30;9.03;;;18.60;99.90;;;;;;4992314;28;20480;-77
2022/08/20 04:40:52;;;;;;;10.00;9.00;;;18.50;99.90;;;;;;4992560;28;20858;-77
2022/08/20 04:42:36;;;;;;;11.07;9.80;;;18.60;99.90;;;;;;4992109;28;20463;-77
2022/08/20 04:45:05;;;;;;;11.80;10.57;;;18.60;99.90;;;;;;4991958;28;20456;-77
2022/08/20 04:47:32;;;;;;;12.40;10.50;;;18.50;99.90;;;;;;4992205;28;21004;-77
2022/08/20 04:49:59;;;;;;;11.47;10.37;;;18.60;99.90;;;;;;4992100;28;20947;-77
2022/08/20 04:52:31;;;;;;;16.33;11.40;;;18.60;99.90;;;;;;4991906;28;20495;-77
2022/08/20 04:54:58;;;;;;;12.40;11.10;;;18.60;99.90;;;;;;4992075;28;20459;-77
2022/08/20 04:57:25;;;;;;;15.03;10.70;;;18.60;99.90;;;;;;4992390;28;20470;-77
2022/08/20 04:59:53;;;;;;;10.80;9.10;;;18.50;99.90;;;;;;4992104;28;20462;-77
2022/08/20 05:02:20;;;;;;;9.40;8.50;;;18.50;99.90;;;;;;4996589;28;20489;-79
2022/08/20 05:04:47;;;;;;;10.87;8.97;;;18.50;99.90;;;;;;4996969;28;20528;-79
2022/08/20 05:07:15;;;;;;;10.53;7.40;;;18.50;99.90;;;;;;4999859;28;20476;-79
2022/08/20 05:09:43;;;;;;;9.33;7.80;;;18.60;99.90;;;;;;5001423;28;20470;-79
2022/08/20 05:12:11;;;;;;;10.10;6.77;;;18.50;99.90;;;;;;5002021;28;20578;-79
2022/08/20 05:14:38;;;;;;;8.23;6.60;;;18.60;99.90;;;;;;5000550;28;20467;-80
2022/08/20 05:17:05;;;;;;;7.23;6.50;;;18.60;99.90;;;;;;5000766;28;20937;-80
2022/08/20 05:19:34;;;;;;;10.10;6.57;;;18.60;99.90;;;;;;5001715;28;20459;-79
2022/08/20 05:22:01;;;;;;;8.30;7.60;;;18.70;99.90;;;;;;5001532;28;20510;-79
2022/08/20 05:24:29;;;;;;;9.00;6.50;;;18.70;99.90;;;;;;5001188;28;20477;-79
2022/08/20 05:26:58;;;;;;;7.00;6.30;;;18.60;99.90;;;;;;5000569;28;20901;-80
2022/08/20 05:29:26;;;;;;;7.70;6.90;;;18.70;99.90;;;;;;5000671;28;21027;-79
2022/08/20 05:31:53;;;;;;;9.40;6.13;;;18.80;99.90;;;;;;5001182;28;20487;-80
2022/08/20 05:34:19;;;;;;;8.27;7.33;;;18.70;99.90;;;;;;5001410;28;20456;-80
2022/08/20 05:36:49;;;;;;;7.80;6.70;;;18.80;99.90;;;;;;5001605;28;20475;-80
2022/08/20 05:39:17;;;;;;;8.63;7.60;;;18.80;99.90;;;;;;5001583;28;20456;-80
2022/08/20 05:41:43;;;;;;;7.50;6.80;;;18.80;99.90;;;;;;5000797;28;21004;-80
2022/08/20 05:44:14;;;;;;;7.97;7.27;;;18.80;99.90;;;;;;5000951;28;20459;-80
2022/08/20 05:46:42;;;;;;;7.33;6.50;;;18.80;99.90;;;;;;5000960;28;20491;-80
2022/08/20 05:49:10;;;;;;;8.57;7.73;;;18.90;99.90;;;;;;5001564;28;20595;-79
2022/08/20 05:51:37;;;;;;;7.83;7.10;;;18.90;99.90;;;;;;5000785;28;20495;-80
2022/08/20 05:54:05;;;;;;;7.57;6.30;;;18.80;99.90;;;;;;5000729;28;20502;-79
2022/08/20 05:56:32;;;;;;;8.57;6.50;;;18.80;99.90;;;;;;5000837;28;20570;-79
2022/08/20 05:59:02;;;;;;;7.07;6.37;;;18.90;99.90;;;;;;5000534;28;20463;-80
2022/08/20 06:01:31;;;;;;;7.63;6.20;;;18.90;99.90;;;;;;5001121;28;20462;-80
2022/08/20 06:06:42;;;;;;;7.90;5.90;;;18.90;99.90;;;;;;5000512;28;20823;-79
2022/08/20 06:09:09;;;;;;;7.50;5.40;;;19.00;99.90;;;;;;5000597;28;20458;-80
2022/08/20 06:11:36;;;;;;;7.33;6.00;;;19.00;99.90;;;;;;5000934;28;20502;-79
2022/08/20 06:14:03;;;;;;;9.10;6.07;;;19.00;99.90;;;;;;5000700;28;20460;-80
2022/08/20 06:16:31;;;;;;;9.20;6.37;;;19.00;99.90;;;;;;5000305;28;20517;-80
2022/08/20 06:18:58;;;;;;;8.17;6.37;;;19.10;99.90;;;;;;5000209;28;20464;-80
2022/08/20 06:21:25;;;;;;;8.13;6.10;;;19.00;99.90;;;;;;5000576;28;20452;-80
2022/08/20 06:23:51;;;;;;;6.20;5.60;;;19.10;99.90;;;;;;5000511;28;20551;-80
2022/08/20 06:26:18;;;;;;;6.90;6.20;;;19.10;99.90;;;;;;5000703;28;20480;-80
2022/08/20 06:28:45;;;;;;;6.80;5.60;;;19.10;99.90;;;;;;5000731;28;20460;-80
2022/08/20 06:31:12;;;;;;;7.10;6.27;;;19.10;99.90;;;;;;5001210;28;20481;-79
2022/08/20 06:33:40;;;;;;;10.93;8.10;;;19.20;99.90;;;;;;4999777;28;20998;-80
2022/08/20 06:36:08;;;;;;;8.03;7.23;;;19.20;99.90;;;;;;4999572;28;20502;-80
2022/08/20 06:38:35;;;;;;;10.17;7.87;;;19.20;99.90;;;;;;5000247;28;20448;-79
2022/08/20 06:41:02;;;;;;;8.73;7.83;;;19.20;99.90;;;;;;5000488;28;20452;-80
2022/08/20 06:43:30;;;;;;;7.90;7.13;;;19.20;99.90;;;;;;5000536;28;20456;-80
2022/08/20 06:45:57;;;;;;;8.87;7.60;;;19.10;99.90;;;;;;4999965;28;20486;-80
2022/08/20 06:48:24;;;;;;;7.70;6.90;;;19.20;99.90;;;;;;4999719;28;20889;-79
2022/08/20 06:50:52;;;;;;;10.63;9.07;;;19.20;99.90;;;;;;5000623;28;20462;-80
2022/08/20 06:53:20;;;;;;;24.10;13.10;;;19.10;99.90;;;;;;5000799;28;20495;-80
2022/08/20 06:55:51;;;;;;;14.40;11.93;;;19.10;99.90;;;;;;4999133;28;20479;-80
2022/08/20 06:58:21;;;;;;;14.27;10.87;;;19.10;99.90;;;;;;4999446;28;20456;-80
2022/08/20 07:00:48;;;;;;;14.53;12.17;;;19.10;99.90;;;;;;4999944;28;20482;-79
2022/08/20 07:03:15;;;;;;;15.00;11.67;;;19.10;99.90;;;;;;5002023;28;20592;-80
2022/08/20 07:05:44;;;;;;;16.20;11.13;;;19.10;99.90;;;;;;5001298;28;20526;-79
2022/08/20 07:08:15;;;;;;;17.43;11.23;;;19.00;99.90;;;;;;4999737;28;20461;-80
2022/08/20 07:10:42;;;;;;;14.43;11.00;;;19.00;99.90;;;;;;5001131;28;20536;-79
2022/08/20 07:13:10;;;;;;;14.00;10.27;;;19.00;99.90;;;;;;5000743;28;20495;-80
2022/08/20 07:15:38;;;;;;;14.17;10.43;;;18.90;99.90;;;;;;4999727;28;20495;-80
2022/08/20 07:18:06;;;;;;;16.37;11.00;;;19.00;99.90;;;;;;5001278;28;20463;-80
2022/08/20 07:20:35;;;;;;;13.27;10.77;;;19.00;99.90;;;;;;5001999;28;20463;-80
2022/08/20 07:23:02;;;;;;;15.60;12.00;;;19.00;99.90;;;;;;4999906;28;20807;-80
2022/08/20 07:25:32;;;;;;;19.43;12.93;;;19.00;99.90;;;;;;5000146;28;20481;-79
2022/08/20 07:28:03;;;;;;;14.73;11.40;;;19.00;99.90;;;;;;5002102;28;20840;-79
2022/08/20 07:33:15;;;;;;;16.03;12.10;;;19.00;99.90;;;;;;5002026;28;20995;-79
2022/08/20 07:35:42;;;;;;;14.50;10.87;;;19.10;99.90;;;;;;5000055;28;20506;-79
2022/08/20 07:38:16;;;;;;;14.23;12.03;;;19.10;99.90;;;;;;5000038;28;20486;-79
2022/08/20 07:40:48;;;;;;;15.47;11.67;;;19.20;99.90;;;;;;4999862;28;20510;-79
2022/08/20 07:43:15;;;;;;;14.43;11.63;;;19.30;99.90;;;;;;5000012;28;20479;-78
2022/08/20 07:45:42;;;;;;;18.50;13.73;;;19.30;99.90;;;;;;4999929;28;20483;-79
2022/08/20 07:48:12;;;;;;;17.87;12.93;;;19.40;99.90;;;;;;4999940;28;20463;-79
2022/08/20 07:50:48;;;;;;;15.47;11.70;;;19.40;99.90;;;;;;5156379;27;20537;-78
2022/08/20 07:53:16;;;;;;;15.23;12.50;;;19.50;99.90;;;;;;5157692;27;20452;-78
2022/08/20 07:55:43;;;;;;;16.20;12.40;;;19.50;99.90;;;;;;5157131;27;20473;-79
2022/08/20 07:58:13;;;;;;;14.93;11.43;;;19.60;99.90;;;;;;5157785;27;20528;-79
2022/08/20 08:00:41;;;;;;;14.17;11.33;;;19.60;99.90;;;;;;5157206;27;20536;-79
2022/08/20 08:03:08;;;;;;;19.07;12.43;;;19.70;99.90;;;;;;5141674;22;20495;-73
2022/08/20 08:05:37;;;;;;;15.90;11.53;;;19.70;99.90;;;;;;5088786;28;20478;-75
2022/08/20 08:08:07;;;;;;;18.00;12.63;;;19.80;99.90;;;;;;5089341;28;20505;-73
2022/08/20 08:10:34;;;;;;;13.37;11.10;;;19.80;99.90;;;;;;5089083;28;20495;-73
2022/08/20 08:13:04;;;;;;;10.90;9.60;;;19.80;99.90;;;;;;5088839;28;20481;-73
2022/08/20 08:15:43;;;;;;;14.80;11.40;;;19.80;99.90;;;;;;5089198;28;20458;-74
2022/08/20 08:18:14;;;;;;;16.00;11.20;;;19.90;99.90;;;;;;5088750;28;20455;-74
2022/08/20 08:20:44;;;;;;;14.60;11.60;;;19.90;99.90;;;;;;5088976;28;20459;-74
2022/08/20 08:23:12;;;;;;;14.03;10.63;;;19.90;99.90;;;;;;5088674;28;20985;-73
2022/08/20 08:25:41;;;;;;;12.53;10.20;;;19.90;99.90;;;;;;5088632;28;20447;-73
2022/08/20 08:28:13;;;;;;;18.30;11.60;;;20.00;99.90;;;;;;5088576;28;20833;-74
2022/08/20 08:30:42;;;;;;;15.27;12.10;;;20.00;99.90;;;;;;5088676;28;20482;-74
2022/08/20 08:33:31;;;;;;;16.83;12.50;;;20.00;99.90;;;;;;5088580;28;20566;-73
2022/08/20 08:36:03;;;;;;;13.30;10.63;;;20.00;99.90;;;;;;5088331;28;20463;-73
2022/08/20 08:38:33;;;;;;;12.43;10.37;;;20.00;99.90;;;;;;5088677;28;20440;-73
2022/08/20 08:41:07;;;;;;;12.47;11.10;;;20.00;99.90;;;;;;5088002;28;20504;-73
2022/08/20 08:43:36;;;;;;;14.30;11.70;;;20.10;99.90;;;;;;5088626;28;20435;-73
2022/08/20 08:46:07;;;;;;;15.90;11.33;;;20.10;99.90;;;;;;5087951;28;20461;-73
2022/08/20 08:48:37;;;;;;;14.50;11.20;;;20.20;99.90;;;;;;5088503;28;20511;-73
2022/08/20 08:51:10;;;;;;;13.43;10.60;;;20.30;99.90;;;;;;5088104;28;21042;-73
2022/08/20 08:53:45;;;;;;;12.03;10.80;;;20.30;99.90;;;;;;5088256;28;20793;-73
2022/08/20 08:56:14;;;;;;;14.90;11.90;;;20.30;99.90;;;;;;5087994;28;20859;-74
2022/08/20 08:58:42;;;;;;;12.67;10.57;;;20.40;99.90;;;;;;5087914;28;20943;-73
2022/08/20 09:01:12;;;;;;;13.47;12.00;;;20.50;99.90;;;;;;5079880;28;20506;-73
2022/08/20 09:03:44;;;;;;;14.50;11.63;;;20.50;99.90;;;;;;5074351;28;20444;-73
2022/08/20 09:06:14;;;;;;;14.87;12.10;;;20.60;99.90;;;;;;5074451;28;21093;-74
2022/08/20 09:08:46;;;;;;;14.47;12.50;;;20.70;99.90;;;;;;5074202;28;20858;-74
2022/08/20 09:11:14;;;;;;;14.33;11.80;;;20.80;99.90;;;;;;5074479;28;20476;-74
2022/08/20 09:13:41;;;;;;;13.10;11.20;;;20.80;99.90;;;;;;5074529;28;20456;-74
2022/08/20 09:16:09;;;;;;;16.63;13.33;;;20.80;99.90;;;;;;5073890;28;20448;-74
2022/08/20 09:18:35;;;;;;;19.80;12.40;;;20.90;99.90;;;;;;5074225;28;20460;-74
2022/08/20 09:21:02;;;;;;;12.50;11.20;;;21.00;99.90;;;;;;5074294;28;20444;-74
2022/08/20 09:23:29;;;;;;;17.07;12.10;;;21.10;99.90;;;;;;5074122;28;20478;-74
2022/08/20 09:26:00;;;;;;;12.20;10.90;;;21.20;99.90;;;;;;5074301;28;20824;-74
2022/08/20 09:28:27;;;;;;;12.13;10.57;;;21.20;99.90;;;;;;5074429;28;20452;-74
2022/08/20 09:30:54;;;;;;;9.33;8.33;;;21.30;99.90;;;;;;5073549;28;21037;-74
2022/08/20 09:33:21;;;;;;;10.43;8.63;;;21.30;99.90;;;;;;5073745;28;20861;-74
2022/08/20 09:35:48;;;;;;;11.10;8.03;;;21.30;99.90;;;;;;5073727;28;20456;-74
2022/08/20 09:38:15;;;;;;;12.30;8.13;;;21.30;99.90;;;;;;5073721;28;20978;-74
2022/08/20 09:40:42;;;;;;;7.00;6.23;;;21.30;99.90;;;;;;5074090;28;20452;-74
2022/08/20 09:43:10;;;;;;;7.30;6.60;;;21.40;99.90;;;;;;5074106;28;20474;-74
2022/08/20 09:45:37;;;;;;;7.07;6.30;;;21.40;99.90;;;;;;5073115;28;20467;-74
2022/08/20 09:48:04;;;;;;;6.57;5.97;;;21.50;99.90;;;;;;5073446;28;20894;-74
2022/08/20 09:50:34;;;;;;;6.27;5.67;;;21.50;99.90;;;;;;5073735;28;20494;-74
2022/08/20 09:53:03;;;;;;;6.47;5.77;;;21.60;99.90;;;;;;5073470;28;20472;-74
2022/08/20 09:55:34;;;;;;;5.10;4.60;;;21.70;99.90;;;;;;5073168;28;20965;-74
2022/08/20 09:58:02;;;;;;;5.20;4.60;;;21.80;99.90;;;;;;5073349;28;20450;-74
2022/08/20 10:00:30;;;;;;;4.90;4.40;;;21.90;99.90;;;;;;5073499;28;20453;-74
2022/08/20 10:02:59;;;;;;;5.20;4.70;;;22.10;99.90;;;;;;5073126;28;20479;-74
2022/08/20 10:05:26;;;;;;;4.77;4.27;;;22.20;99.90;;;;;;5073026;28;20903;-74
2022/08/20 10:07:53;;;;;;;4.87;3.40;;;22.30;99.90;;;;;;5073126;28;20448;-74
2022/08/20 10:10:20;;;;;;;4.00;3.60;;;22.40;99.90;;;;;;5072905;28;20857;-74
2022/08/20 10:12:47;;;;;;;5.67;4.40;;;22.50;99.90;;;;;;5072102;28;20491;-74
2022/08/20 10:15:14;;;;;;;5.90;4.00;;;22.60;99.90;;;;;;5073126;28;20452;-74
2022/08/20 10:17:43;;;;;;;5.60;4.20;;;22.70;99.90;;;;;;5073154;28;20448;-74
2022/08/20 10:20:13;;;;;;;4.80;4.30;;;22.80;99.90;;;;;;5072953;28;20452;-74
2022/08/20 10:22:40;;;;;;;3.90;3.60;;;22.90;99.90;;;;;;5073531;28;20564;-74
2022/08/20 10:25:07;;;;;;;4.57;3.80;;;23.00;99.90;;;;;;5072305;28;20456;-74
2022/08/20 10:27:34;;;;;;;3.60;3.30;;;23.10;99.90;;;;;;5073226;28;20459;-74
2022/08/20 10:30:01;;;;;;;3.27;3.00;;;23.30;99.90;;;;;;5072969;28;20495;-74
2022/08/20 10:32:28;;;;;;;3.50;3.10;;;23.30;99.90;;;;;;5073019;28;20480;-74
2022/08/20 10:34:56;;;;;;;2.67;2.30;;;23.40;99.90;;;;;;5072450;28;20956;-75
2022/08/20 10:37:25;;;;;;;2.80;2.60;;;23.50;99.90;;;;;;5072555;28;20460;-74
2022/08/20 10:39:52;;;;;;;3.07;2.67;;;23.50;99.90;;;;;;5072638;28;20494;-75
2022/08/20 10:42:19;;;;;;;3.40;3.10;;;23.50;99.90;;;;;;5072588;28;20480;-74
2022/08/20 10:44:46;;;;;;;3.10;2.80;;;23.50;99.90;;;;;;5072210;28;20456;-72
2022/08/20 10:47:15;;;;;;;2.97;2.77;;;23.50;99.90;;;;;;5072776;28;20478;-72
2022/08/20 10:49:42;;;;;;;4.40;4.00;;;23.50;99.90;;;;;;5072367;28;20494;-75
2022/08/20 10:52:10;;;;;;;2.70;2.50;;;23.60;99.90;;;;;;5072161;28;20478;-75
2022/08/20 10:54:40;;;;;;;2.90;2.70;;;23.60;99.90;;;;;;5072236;28;20460;-75
2022/08/20 10:57:07;;;;;;;3.10;2.80;;;23.60;99.90;;;;;;5072143;28;21039;-72
2022/08/20 10:59:38;;;;;;;2.43;2.20;;;23.50;99.90;;;;;;5072269;28;20517;-72
2022/08/20 11:02:05;;;;;;;2.10;1.93;;;23.60;99.90;;;;;;5072068;28;20499;-73
2022/08/20 11:04:32;;;;;;;2.67;2.03;;;23.60;99.90;;;;;;5071447;28;20944;-74
2022/08/20 11:06:58;;;;;;;1.70;1.60;;;23.50;99.90;;;;;;5071147;28;20460;-73
2022/08/20 11:09:28;;;;;;;2.20;1.90;;;23.50;99.90;;;;;;5072075;28;20464;-73
2022/08/20 11:11:55;;;;;;;2.23;1.90;;;23.60;99.90;;;;;;5070691;28;20559;-73
2022/08/20 11:14:22;;;;;;;3.17;2.17;;;23.70;99.90;;;;;;5071926;28;20441;-73
2022/08/20 11:16:49;;;;;;;2.37;2.17;;;23.70;99.90;;;;;;5072021;28;20909;-73
2022/08/20 11:19:16;;;;;;;4.83;2.60;;;23.70;99.90;;;;;;5071776;28;20454;-73
2022/08/20 11:21:42;;;;;;;3.70;2.63;;;23.70;99.90;;;;;;5071868;28;20559;-74
2022/08/20 11:24:09;;;;;;;2.67;2.47;;;23.90;99.90;;;;;;5071616;28;20459;-74
2022/08/20 11:26:37;;;;;;;2.93;2.63;;;23.90;99.90;;;;;;5072099;28;20460;-73
2022/08/20 11:29:04;;;;;;;3.57;2.60;;;24.10;99.90;;;;;;5072045;28;20459;-73
2022/08/20 11:31:31;;;;;;;5.17;2.50;;;24.30;99.90;;;;;;5071541;28;20499;-73
2022/08/20 11:33:58;;;;;;;2.90;2.63;;;24.50;99.90;;;;;;5071277;28;20822;-74
2022/08/20 11:36:25;;;;;;;3.80;2.63;;;24.60;99.90;;;;;;5071849;28;20534;-73
2022/08/20 11:38:52;;;;;;;6.43;2.30;;;24.60;99.90;;;;;;5071608;28;20944;-73
2022/08/20 11:41:19;;;;;;;4.47;3.13;;;24.60;99.90;;;;;;5071715;28;20547;-73
2022/08/20 11:43:47;;;;;;;3.53;2.60;;;24.50;99.90;;;;;;5071786;28;20936;-73
2022/08/20 11:46:14;;;;;;;2.93;2.60;;;24.30;99.90;;;;;;5071762;28;20470;-74
2022/08/20 11:48:41;;;;;;;3.40;2.90;;;24.10;99.90;;;;;;5072032;28;20462;-73
2022/08/20 11:51:08;;;;;;;3.03;2.70;;;24.00;99.90;;;;;;5072083;28;20490;-73
2022/08/20 11:53:35;;;;;;;4.23;2.77;;;23.90;99.90;;;;;;5071706;28;20827;-73
2022/08/20 11:56:01;;;;;;;5.47;2.87;;;23.80;99.90;;;;;;5071639;28;20452;-73
2022/08/20 11:58:28;;;;;;;3.17;2.87;;;23.70;99.90;;;;;;5071565;28;20973;-73
2022/08/20 12:00:58;;;;;;;2.50;2.30;;;23.70;99.90;;;;;;5071440;28;20460;-73
2022/08/20 12:03:25;;;;;;;3.10;2.27;;;23.60;99.90;;;;;;5071453;28;20574;-73
2022/08/20 12:05:52;;;;;;;2.30;2.10;;;23.50;99.90;;;;;;5071588;28;20447;-72
2022/08/20 12:08:18;;;;;;;1.80;1.70;;;23.50;99.90;;;;;;5071667;28;20458;-73
2022/08/20 12:10:45;;;;;;;2.93;2.40;;;23.40;99.90;;;;;;5071797;28;20510;-73
2022/08/20 12:13:12;;;;;;;2.20;2.00;;;23.30;99.90;;;;;;5071039;28;20507;-73
2022/08/20 12:15:39;;;;;;;2.70;1.93;;;23.30;99.90;;;;;;5071089;28;20757;-73
2022/08/20 12:18:08;;;;;;;3.70;2.10;;;23.30;99.90;;;;;;5071346;28;20951;-73
2022/08/20 12:20:35;;;;;;;2.57;2.30;;;23.30;99.90;;;;;;5071268;28;20948;-73
2022/08/20 12:23:02;;;;;;;3.13;2.20;;;23.30;99.90;;;;;;5071689;28;20477;-73
2022/08/20 12:25:29;;;;;;;2.27;2.07;;;23.20;99.90;;;;;;5071698;28;20448;-73
2022/08/20 12:27:57;;;;;;;2.63;2.43;;;23.30;99.90;;;;;;5071467;28;20456;-73
2022/08/20 12:30:25;;;;;;;2.83;2.20;;;23.40;99.90;;;;;;5071196;28;20851;-73
2022/08/20 12:32:52;;;;;;;5.80;2.13;;;23.50;99.90;;;;;;5071379;28;21005;-73
2022/08/20 12:35:20;;;;;;;2.13;1.93;;;23.40;99.90;;;;;;5071473;28;20467;-72
2022/08/20 12:37:47;;;;;;;3.20;2.20;;;23.40;99.90;;;;;;5075144;28;20452;-73
2022/08/20 12:40:16;;;;;;;3.20;2.20;;;23.40;99.90;;;;;;5075285;28;20531;-72
2022/08/20 12:42:43;;;;;;;2.30;2.00;;;23.40;99.90;;;;;;5075184;28;20486;-73
2022/08/20 12:45:11;;;;;;;3.37;2.33;;;23.50;99.90;;;;;;5074998;28;20538;-73
2022/08/20 12:47:40;;;;;;;5.53;2.27;;;23.50;99.90;;;;;;5075174;28;20486;-73
2022/08/20 12:50:10;;;;;;;2.77;2.10;;;23.40;99.90;;;;;;5074573;28;20963;-72
2022/08/20 12:52:39;;;;;;;3.10;2.20;;;23.50;99.90;;;;;;5075093;28;20554;-73
2022/08/20 12:55:09;;;;;;;2.70;1.97;;;23.40;99.90;;;;;;5074576;28;20470;-73
2022/08/20 12:57:37;;;;;;;1.87;1.77;;;23.40;99.90;;;;;;5074902;28;20774;-73
2022/08/20 13:00:08;;;;;;;2.40;2.10;;;23.40;99.90;;;;;;5074769;28;20451;-73
2022/08/20 13:02:34;;;;;;;2.90;1.70;;;23.50;99.90;;;;;;5074564;28;20542;-73
2022/08/20 13:05:01;;;;;;;2.73;1.67;;;23.50;99.90;;;;;;5074693;28;20458;-73
2022/08/20 13:07:28;;;;;;;2.53;1.70;;;23.40;99.90;;;;;;5074295;28;20459;-73
2022/08/20 13:09:56;;;;;;;2.80;1.27;;;23.50;99.90;;;;;;5074381;28;20476;-73
2022/08/20 13:12:23;;;;;;;2.37;1.43;;;23.60;99.90;;;;;;5073645;28;20877;-73
2022/08/20 13:14:50;;;;;;;1.90;1.70;;;23.60;99.90;;;;;;5074375;28;20440;-73
2022/08/20 13:17:17;;;;;;;2.30;2.00;;;23.60;99.90;;;;;;5074508;28;20454;-73
2022/08/20 13:19:44;;;;;;;4.73;1.60;;;23.70;99.90;;;;;;5074585;28;20533;-73
2022/08/20 13:22:12;;;;;;;2.30;2.10;;;23.80;99.90;;;;;;5074148;28;20481;-73
2022/08/20 13:24:42;;;;;;;2.53;2.10;;;23.80;99.90;;;;;;5074140;28;20463;-74
2022/08/20 13:27:12;;;;;;;2.10;1.90;;;23.80;99.90;;;;;;5074274;28;20448;-74
2022/08/20 13:29:45;;;;;;;2.20;2.00;;;23.90;99.90;;;;;;5074340;28;20447;-73
2022/08/20 13:32:12;;;;;;;3.43;2.20;;;23.90;99.90;;;;;;5073922;28;20500;-73
2022/08/20 13:34:39;;;;;;;1.83;1.73;;;23.90;99.90;;;;;;5073507;28;20456;-73
2022/08/20 13:37:12;;;;;;;3.70;2.20;;;23.90;99.90;;;;;;5073918;28;21006;-73
2022/08/20 13:39:39;;;;;;;2.60;2.37;;;23.90;99.90;;;;;;5074321;28;20467;-73
2022/08/20 13:42:07;;;;;;;6.93;2.70;;;23.90;99.90;;;;;;5074049;28;20472;-73
2022/08/20 13:44:35;;;;;;;3.80;2.87;;;23.90;99.90;;;;;;5073707;28;20452;-73
2022/08/20 13:47:14;;;;;;;3.33;2.20;;;23.70;99.90;;;;;;5073578;28;20451;-73
2022/08/20 13:49:41;;;;;;;3.30;2.03;;;23.60;99.90;;;;;;5074076;28;20448;-74
2022/08/20 13:52:08;;;;;;;2.80;1.93;;;23.50;99.90;;;;;;5073680;28;20491;-73
2022/08/20 13:54:35;;;;;;;2.00;1.70;;;23.30;99.90;;;;;;5073735;28;20458;-74
2022/08/20 13:57:06;;;;;;;2.07;1.60;;;23.20;99.90;;;;;;5073999;28;20773;-74
2022/08/20 13:59:37;;;;;;;2.03;1.33;;;23.00;99.90;;;;;;5073386;28;20452;-74
2022/08/20 14:02:04;;;;;;;2.27;1.40;;;22.90;99.90;;;;;;5105237;22;20497;-75
2022/08/20 14:04:31;;;;;;;3.10;1.70;;;22.80;99.90;;;;;;5113958;28;20454;-76
2022/08/20 14:06:58;;;;;;;2.17;1.27;;;22.80;99.90;;;;;;5113848;28;20937;-76
2022/08/20 14:09:25;;;;;;;3.83;2.00;;;22.80;99.90;;;;;;5113776;28;20489;-76
2022/08/20 14:11:51;;;;;;;2.53;1.70;;;22.80;99.90;;;;;;5113275;28;20494;-76
2022/08/20 14:14:18;;;;;;;5.03;1.60;;;22.90;99.90;;;;;;5113565;28;20441;-77
2022/08/20 14:16:47;;;;;;;2.13;1.80;;;23.00;99.90;;;;;;5114246;28;20458;-75
2022/08/20 14:19:13;;;;;;;5.40;2.20;;;23.00;99.90;;;;;;5114035;28;20457;-76
2022/08/20 14:21:40;;;;;;;2.57;2.00;;;22.90;99.90;;;;;;5113535;28;20535;-76
2022/08/20 14:24:07;;;;;;;2.57;2.00;;;22.90;99.90;;;;;;5113650;28;20466;-76
2022/08/20 14:26:34;;;;;;;2.20;1.87;;;22.90;99.90;;;;;;5116424;28;20454;-78
2022/08/20 14:29:02;;;;;;;2.70;1.57;;;23.00;99.90;;;;;;5117322;28;20553;-78
2022/08/20 14:31:28;;;;;;;2.43;1.73;;;22.90;99.90;;;;;;5117947;28;20525;-78
2022/08/20 14:33:57;;;;;;;3.40;1.83;;;22.90;99.90;;;;;;5116991;28;20457;-78
2022/08/20 14:36:23;;;;;;;3.40;1.70;;;22.90;99.90;;;;;;5116675;28;20446;-78
2022/08/20 14:38:50;;;;;;;3.90;2.00;;;23.00;99.90;;;;;;5117125;28;20485;-78
2022/08/20 14:41:17;;;;;;;4.70;1.80;;;23.00;99.90;;;;;;5116418;28;20926;-77
2022/08/20 14:43:44;;;;;;;6.00;2.10;;;23.00;99.90;;;;;;5117385;28;20466;-78
2022/08/20 14:46:11;;;;;;;3.10;1.70;;;23.00;99.90;;;;;;5116736;28;20526;-78
2022/08/20 14:48:38;;;;;;;4.67;2.23;;;23.00;99.90;;;;;;5116797;28;20458;-78
2022/08/20 14:51:08;;;;;;;4.50;2.10;;;23.00;99.90;;;;;;5117422;28;20580;-79
2022/08/20 14:53:36;;;;;;;1.93;1.83;;;23.00;99.90;;;;;;5116751;28;20522;-79
2022/08/20 14:56:04;;;;;;;2.47;1.60;;;23.00;99.90;;;;;;5116398;28;20541;-78
2022/08/20 14:58:31;;;;;;;2.60;1.73;;;23.00;99.90;;;;;;5116500;28;20474;-78
2022/08/20 15:00:57;;;;;;;4.83;1.83;;;23.00;99.90;;;;;;5116078;28;20911;-79
2022/08/20 15:03:29;;;;;;;4.57;1.73;;;23.00;99.90;;;;;;5116759;28;20490;-78
2022/08/20 15:05:56;;;;;;;4.00;1.97;;;23.00;99.90;;;;;;5116567;28;20808;-79
2022/08/20 15:08:24;;;;;;;3.10;2.00;;;23.00;99.90;;;;;;5116482;28;20470;-78
2022/08/20 15:10:51;;;;;;;2.40;1.73;;;23.10;99.90;;;;;;5116928;28;20518;-78
2022/08/20 15:13:18;;;;;;;3.50;1.80;;;23.20;99.90;;;;;;5116390;28;20590;-79
2022/08/20 15:15:45;;;;;;;3.40;2.30;;;23.30;99.90;;;;;;5116534;28;20443;-78
2022/08/20 15:18:11;;;;;;;1.90;1.63;;;23.50;99.90;;;;;;5117110;28;20521;-79
2022/08/20 15:20:38;;;;;;;2.87;1.63;;;23.60;99.90;;;;;;5116643;28;20549;-78
2022/08/20 15:23:06;;;;;;;2.40;1.93;;;23.70;99.90;;;;;;5116012;28;20496;-78
2022/08/20 15:25:36;;;;;;;2.60;2.03;;;23.80;99.90;;;;;;5116570;28;20484;-78
2022/08/20 15:28:03;;;;;;;1.87;1.67;;;23.90;99.90;;;;;;5116931;28;20563;-78
2022/08/20 15:30:32;;;;;;;1.97;1.50;;;24.10;99.90;;;;;;5116431;28;20458;-78
2022/08/20 15:32:58;;;;;;;2.00;1.67;;;24.30;99.90;;;;;;5116247;28;20498;-79
2022/08/20 15:35:27;;;;;;;2.00;1.40;;;24.40;99.90;;;;;;5115912;28;20460;-78
2022/08/20 15:37:56;;;;;;;2.30;1.60;;;24.60;99.90;;;;;;5116698;28;20542;-78
2022/08/20 15:40:25;;;;;;;2.30;1.60;;;24.80;99.90;;;;;;5116238;28;20458;-78
2022/08/20 15:42:53;;;;;;;1.80;1.70;;;24.90;99.90;;;;;;5116485;28;20478;-79
2022/08/20 15:45:20;;;;;;;1.40;1.30;;;25.10;99.90;;;;;;5116025;28;20450;-78
2022/08/20 15:47:51;;;;;;;1.97;1.57;;;25.20;99.90;;;;;;5116326;28;20461;-79
2022/08/20 15:50:31;;;;;;;1.50;1.40;;;25.30;99.90;;;;;;5116682;28;20442;-78
2022/08/20 15:53:06;;;;;;;3.43;1.63;;;25.40;99.90;;;;;;5116319;28;20524;-79
2022/08/20 15:55:35;;;;;;;1.73;1.63;;;25.40;99.90;;;;;;5116496;28;20438;-79
2022/08/20 15:58:10;;;;;;;1.67;1.43;;;25.30;99.90;;;;;;5116502;28;20460;-79
2022/08/20 16:00:44;;;;;;;2.30;1.80;;;25.40;99.90;;;;;;5116370;28;20454;-79
2022/08/20 16:03:29;;;;;;;2.07;1.50;;;25.50;99.90;;;;;;5116896;28;20488;-78
2022/08/20 16:05:59;;;;;;;3.03;1.80;;;25.50;99.90;;;;;;5116890;28;20492;-79
2022/08/20 16:08:57;;;;;;;1.73;1.40;;;25.40;99.90;;;;;;5116733;28;20450;-78
2022/08/20 16:11:34;;;;;;;1.93;1.50;;;25.40;99.90;;;;;;5118492;28;20497;-79
2022/08/20 16:14:14;;;;;;;1.87;1.63;;;25.50;99.90;;;;;;5120533;28;20969;-78
2022/08/20 16:16:44;;;;;;;3.83;1.83;;;25.50;99.90;;;;;;5120653;28;20495;-78
2022/08/20 16:19:13;;;;;;;1.80;1.40;;;25.50;99.90;;;;;;5120642;28;20442;-78
2022/08/20 16:21:43;;;;;;;3.47;1.80;;;25.70;99.90;;;;;;5121024;28;20453;-78
2022/08/20 16:24:11;;;;;;;2.07;1.50;;;25.70;99.90;;;;;;5120941;28;20460;-79
2022/08/20 16:27:06;;;;;;;2.53;1.70;;;25.80;99.90;;;;;;5120667;28;20447;-79
2022/08/20 16:29:45;;;;;;;4.80;1.70;;;25.80;99.90;;;;;;5120064;28;20460;-79
2022/08/20 16:32:19;;;;;;;1.60;1.50;;;25.90;99.90;;;;;;5119717;28;20498;-79
2022/08/20 16:34:54;;;;;;;1.73;1.40;;;25.90;99.90;;;;;;5120071;28;20434;-78
2022/08/20 16:37:27;;;;;;;1.80;1.30;;;25.90;99.90;;;;;;5119834;28;20533;-79
2022/08/20 16:40:02;;;;;;;1.40;1.30;;;25.80;99.90;;;;;;5119860;28;20450;-79
2022/08/20 16:42:40;;;;;;;2.00;1.50;;;25.80;99.90;;;;;;5119874;28;20474;-79
2022/08/20 16:45:13;;;;;;;1.87;1.63;;;25.70;99.90;;;;;;5119921;28;20440;-78
2022/08/20 16:47:40;;;;;;;1.83;1.40;;;25.70;99.90;;;;;;5119692;28;20454;-79
2022/08/20 16:50:11;;;;;;;2.80;1.50;;;25.70;99.90;;;;;;5120096;28;20450;-78
2022/08/20 16:52:43;;;;;;;2.10;1.70;;;25.60;99.90;;;;;;5120291;28;20589;-79
2022/08/20 16:55:10;;;;;;;2.50;1.53;;;25.50;99.90;;;;;;5119881;28;20460;-78